sensor_id;sensor_type;location;lat;lon;timestamp;pressure;altitude;pressure_sealevel;temperature;humidity
72285;BME280;60220;53.552;10.092;2022-07-29T00:00:06;101844.88;;;15.05;62.74
72285;BME280;60220;53.552;10.092;2022-07-29T00:02:32;101841.22;;;15.16;62.46
72285;BME280;60220;53.552;10.092;2022-07-29T00:04:58;101844.88;;;15.05;64.18
72285;BME280;60220;53.552;10.092;2022-07-29T00:07:26;101848.41;;;15.07;63.93
72285;BME280;60220;53.552;10.092;2022-07-29T00:09:54;101845.09;;;14.90;64.33
72285;BME280;60220;53.552;10.092;2022-07-29T00:12:23;101843.31;;;14.92;63.66
72285;BME280;60220;53.552;10.092;2022-07-29T00:14:49;101844.47;;;14.72;65.22
72285;BME280;60220;53.552;10.092;2022-07-29T00:17:17;101842.03;;;14.55;66.31
72285;BME280;60220;53.552;10.092;2022-07-29T00:19:42;101843.63;;;14.68;65.42
72285;BME280;60220;53.552;10.092;2022-07-29T00:22:08;101838.53;;;14.53;64.98
72285;BME280;60220;53.552;10.092;2022-07-29T00:24:36;101832.78;;;14.89;63.62
72285;BME280;60220;53.552;10.092;2022-07-29T00:27:01;101836.34;;;14.85;63.73
72285;BME280;60220;53.552;10.092;2022-07-29T00:29:29;101830.25;;;14.80;64.06
72285;BME280;60220;53.552;10.092;2022-07-29T00:31:56;101823.31;;;14.72;64.50
72285;BME280;60220;53.552;10.092;2022-07-29T00:34:22;101832.00;;;14.83;63.90
72285;BME280;60220;53.552;10.092;2022-07-29T00:37:06;101824.13;;;14.78;64.03
72285;BME280;60220;53.552;10.092;2022-07-29T00:39:33;101820.47;;;14.88;64.04
72285;BME280;60220;53.552;10.092;2022-07-29T00:42:05;101818.94;;;15.32;62.43
72285;BME280;60220;53.552;10.092;2022-07-29T00:44:30;101816.75;;;15.01;63.00
72285;BME280;60220;53.552;10.092;2022-07-29T00:46:58;101811.38;;;15.07;62.97
72285;BME280;60220;53.552;10.092;2022-07-29T00:49:23;101809.19;;;15.35;62.44
72285;BME280;60220;53.552;10.092;2022-07-29T00:51:49;101807.84;;;15.07;62.55
72285;BME280;60220;53.552;10.092;2022-07-29T00:54:17;101810.94;;;15.35;60.93
72285;BME280;60220;53.552;10.092;2022-07-29T00:56:45;101812.84;;;15.28;60.52
72285;BME280;60220;53.552;10.092;2022-07-29T00:59:10;101803.88;;;15.37;59.95
72285;BME280;60220;53.552;10.092;2022-07-29T01:01:41;101820.50;;;15.99;59.22
72285;BME280;60220;53.552;10.092;2022-07-29T01:04:06;101804.72;;;15.39;59.58
72285;BME280;60220;53.552;10.092;2022-07-29T01:06:32;101809.88;;;15.48;59.70
72285;BME280;60220;53.552;10.092;2022-07-29T01:08:59;101805.19;;;15.08;61.01
72285;BME280;60220;53.552;10.092;2022-07-29T01:11:28;101795.44;;;15.11;60.67
72285;BME280;60220;53.552;10.092;2022-07-29T01:13:53;101802.66;;;15.01;60.88
72285;BME280;60220;53.552;10.092;2022-07-29T01:16:27;101793.53;;;15.20;60.16
72285;BME280;60220;53.552;10.092;2022-07-29T01:19:00;101790.50;;;15.44;59.36
72285;BME280;60220;53.552;10.092;2022-07-29T01:21:57;101787.31;;;15.24;59.83
72285;BME280;60220;53.552;10.092;2022-07-29T01:24:47;101790.00;;;15.23;59.60
72285;BME280;60220;53.552;10.092;2022-07-29T01:27:32;101787.56;;;15.07;59.31
72285;BME280;60220;53.552;10.092;2022-07-29T01:30:05;101783.47;;;14.88;60.65
72285;BME280;60220;53.552;10.092;2022-07-29T01:32:35;101784.97;;;15.04;59.66
72285;BME280;60220;53.552;10.092;2022-07-29T01:35:06;101774.13;;;15.23;59.54
72285;BME280;60220;53.552;10.092;2022-07-29T01:40:36;101775.00;;;15.23;59.03
72285;BME280;60220;53.552;10.092;2022-07-29T01:43:12;101770.13;;;15.53;58.78
72285;BME280;60220;53.552;10.092;2022-07-29T01:45:48;101770.03;;;15.02;59.96
72285;BME280;60220;53.552;10.092;2022-07-29T01:48:22;101763.63;;;15.17;59.99
72285;BME280;60220;53.552;10.092;2022-07-29T01:50:51;101778.38;;;15.31;59.46
72285;BME280;60220;53.552;10.092;2022-07-29T01:53:43;101770.59;;;15.24;59.86
72285;BME280;60220;53.552;10.092;2022-07-29T01:56:18;101758.41;;;15.12;59.69
72285;BME280;60220;53.552;10.092;2022-07-29T01:58:45;101761.63;;;15.31;59.83
72285;BME280;60220;53.552;10.092;2022-07-29T02:04:06;101756.66;;;15.13;60.24
72285;BME280;60220;53.552;10.092;2022-07-29T02:06:37;101749.50;;;15.18;59.92
72285;BME280;60220;53.552;10.092;2022-07-29T02:09:03;101752.66;;;15.41;59.37
72285;BME280;60220;53.552;10.092;2022-07-29T02:11:31;101746.16;;;15.62;58.43
72285;BME280;60220;53.552;10.092;2022-07-29T02:14:00;101744.72;;;15.41;59.72
72285;BME280;60220;53.552;10.092;2022-07-29T02:16:30;101746.97;;;15.65;58.85
72285;BME280;60220;53.552;10.092;2022-07-29T02:19:00;101751.06;;;15.31;59.52
72285;BME280;60220;53.552;10.092;2022-07-29T02:21:26;101747.34;;;15.41;59.58
72285;BME280;60220;53.552;10.092;2022-07-29T02:23:54;101742.06;;;15.42;59.67
72285;BME280;60220;53.552;10.092;2022-07-29T02:26:24;101746.81;;;15.21;60.10
72285;BME280;60220;53.552;10.092;2022-07-29T02:28:52;101738.41;;;15.51;59.66
72285;BME280;60220;53.552;10.092;2022-07-29T02:31:25;101734.63;;;15.12;61.07
72285;BME280;60220;53.552;10.092;2022-07-29T02:33:52;101737.88;;;15.28;60.22
72285;BME280;60220;53.552;10.092;2022-07-29T02:36:21;101738.59;;;15.39;60.74
72285;BME280;60220;53.552;10.092;2022-07-29T02:38:48;101737.06;;;15.75;59.16
72285;BME280;60220;53.552;10.092;2022-07-29T02:41:20;101734.31;;;15.82;59.21
72285;BME280;60220;53.552;10.092;2022-07-29T02:43:54;101731.44;;;15.93;58.80
72285;BME280;60220;53.552;10.092;2022-07-29T02:46:29;101734.50;;;15.70;59.51
72285;BME280;60220;53.552;10.092;2022-07-29T02:49:05;101732.38;;;15.90;58.64
72285;BME280;60220;53.552;10.092;2022-07-29T02:51:40;101738.63;;;15.86;58.98
72285;BME280;60220;53.552;10.092;2022-07-29T02:54:08;101730.09;;;15.71;59.30
72285;BME280;60220;53.552;10.092;2022-07-29T02:56:36;101727.84;;;15.48;60.07
72285;BME280;60220;53.552;10.092;2022-07-29T02:59:08;101733.97;;;15.53;60.33
72285;BME280;60220;53.552;10.092;2022-07-29T03:01:40;101723.69;;;15.33;61.18
72285;BME280;60220;53.552;10.092;2022-07-29T03:04:08;101722.22;;;15.16;61.29
72285;BME280;60220;53.552;10.092;2022-07-29T03:06:35;101721.72;;;14.92;62.46
72285;BME280;60220;53.552;10.092;2022-07-29T03:09:02;101714.56;;;15.51;60.46
72285;BME280;60220;53.552;10.092;2022-07-29T03:11:29;101715.66;;;15.38;61.27
72285;BME280;60220;53.552;10.092;2022-07-29T03:14:00;101719.03;;;15.47;60.90
72285;BME280;60220;53.552;10.092;2022-07-29T03:16:29;101712.13;;;15.39;61.64
72285;BME280;60220;53.552;10.092;2022-07-29T03:18:55;101721.25;;;15.20;61.65
72285;BME280;60220;53.552;10.092;2022-07-29T03:21:30;101717.38;;;15.40;60.95
72285;BME280;60220;53.552;10.092;2022-07-29T03:23:57;101717.25;;;15.48;60.83
72285;BME280;60220;53.552;10.092;2022-07-29T03:26:22;101709.81;;;15.19;61.58
72285;BME280;60220;53.552;10.092;2022-07-29T03:28:48;101720.69;;;15.55;60.62
72285;BME280;60220;53.552;10.092;2022-07-29T03:31:13;101715.69;;;15.35;61.32
72285;BME280;60220;53.552;10.092;2022-07-29T03:33:40;101717.03;;;15.63;60.17
72285;BME280;60220;53.552;10.092;2022-07-29T03:36:05;101709.50;;;15.37;60.87
72285;BME280;60220;53.552;10.092;2022-07-29T03:38:37;101715.66;;;15.38;60.87
72285;BME280;60220;53.552;10.092;2022-07-29T03:41:09;101714.47;;;15.59;60.43
72285;BME280;60220;53.552;10.092;2022-07-29T03:43:37;101710.00;;;15.59;60.19
72285;BME280;60220;53.552;10.092;2022-07-29T03:46:04;101708.28;;;15.58;60.57
72285;BME280;60220;53.552;10.092;2022-07-29T03:48:36;101708.84;;;15.75;60.20
72285;BME280;60220;53.552;10.092;2022-07-29T03:51:02;101710.69;;;15.70;59.82
72285;BME280;60220;53.552;10.092;2022-07-29T03:53:28;101712.53;;;15.67;60.11
72285;BME280;60220;53.552;10.092;2022-07-29T03:55:58;101715.25;;;15.62;60.42
72285;BME280;60220;53.552;10.092;2022-07-29T03:58:26;101710.41;;;15.35;61.24
72285;BME280;60220;53.552;10.092;2022-07-29T04:00:54;101711.94;;;15.51;60.19
72285;BME280;60220;53.552;10.092;2022-07-29T04:03:20;101717.03;;;15.63;60.49
72285;BME280;60220;53.552;10.092;2022-07-29T04:06:00;101718.88;;;15.58;59.99
72285;BME280;60220;53.552;10.092;2022-07-29T04:08:26;101708.81;;;15.25;61.70
72285;BME280;60220;53.552;10.092;2022-07-29T04:10:51;101712.06;;;15.43;60.71
72285;BME280;60220;53.552;10.092;2022-07-29T04:13:18;101708.03;;;15.20;61.98
72285;BME280;60220;53.552;10.092;2022-07-29T04:15:44;101713.38;;;15.18;62.20
72285;BME280;60220;53.552;10.092;2022-07-29T04:18:09;101717.34;;;15.42;61.60
72285;BME280;60220;53.552;10.092;2022-07-29T04:20:35;101718.88;;;15.58;60.90
72285;BME280;60220;53.552;10.092;2022-07-29T04:23:03;101716.94;;;15.66;60.23
72285;BME280;60220;53.552;10.092;2022-07-29T04:25:31;101707.81;;;15.82;59.30
72285;BME280;60220;53.552;10.092;2022-07-29T04:27:56;101703.97;;;15.54;59.97
72285;BME280;60220;53.552;10.092;2022-07-29T04:30:28;101708.53;;;15.43;61.17
72285;BME280;60220;53.552;10.092;2022-07-29T04:32:55;101714.97;;;15.77;59.97
72285;BME280;60220;53.552;10.092;2022-07-29T04:35:22;101709.19;;;15.57;60.18
72285;BME280;60220;53.552;10.092;2022-07-29T04:37:48;101701.84;;;15.71;60.21
72285;BME280;60220;53.552;10.092;2022-07-29T04:40:13;101703.91;;;16.02;59.42
72285;BME280;60220;53.552;10.092;2022-07-29T04:42:39;101704.56;;;16.13;59.10
72285;BME280;60220;53.552;10.092;2022-07-29T04:45:07;101710.75;;;15.67;60.31
72285;BME280;60220;53.552;10.092;2022-07-29T04:47:34;101700.06;;;16.16;58.92
72285;BME280;60220;53.552;10.092;2022-07-29T04:50:00;101705.16;;;16.27;58.20
72285;BME280;60220;53.552;10.092;2022-07-29T04:52:28;101710.09;;;16.01;59.10
72285;BME280;60220;53.552;10.092;2022-07-29T04:54:58;101703.06;;;16.43;58.26
72285;BME280;60220;53.552;10.092;2022-07-29T04:57:24;101708.22;;;16.07;59.32
72285;BME280;60220;53.552;10.092;2022-07-29T04:59:51;101706.81;;;16.31;58.22
72285;BME280;60220;53.552;10.092;2022-07-29T05:02:19;101712.81;;;16.39;58.29
72285;BME280;60220;53.552;10.092;2022-07-29T05:04:47;101713.22;;;16.21;58.59
72285;BME280;60220;53.552;10.092;2022-07-29T05:07:15;101714.56;;;15.99;59.12
72285;BME280;60220;53.552;10.092;2022-07-29T05:09:43;101711.19;;;15.90;59.44
72285;BME280;60220;53.552;10.092;2022-07-29T05:12:08;101714.44;;;16.05;59.36
72285;BME280;60220;53.552;10.092;2022-07-29T05:14:37;101712.72;;;16.04;59.59
72285;BME280;60220;53.552;10.092;2022-07-29T05:17:07;101718.91;;;16.03;59.41
72285;BME280;60220;53.552;10.092;2022-07-29T05:19:33;101713.06;;;16.28;59.22
72285;BME280;60220;53.552;10.092;2022-07-29T05:22:01;101716.59;;;15.84;59.94
72285;BME280;60220;53.552;10.092;2022-07-29T05:24:26;101713.88;;;16.32;58.48
72285;BME280;60220;53.552;10.092;2022-07-29T05:26:52;101718.06;;;16.84;57.58
72285;BME280;60220;53.552;10.092;2022-07-29T05:29:21;101715.75;;;16.68;57.89
72285;BME280;60220;53.552;10.092;2022-07-29T05:31:47;101733.69;;;16.54;58.93
72285;BME280;60220;53.552;10.092;2022-07-29T05:34:12;101726.69;;;16.92;58.18
72285;BME280;60220;53.552;10.092;2022-07-29T05:36:40;101725.38;;;17.45;56.51
72285;BME280;60220;53.552;10.092;2022-07-29T05:39:08;101729.53;;;17.21;57.60
72285;BME280;60220;53.552;10.092;2022-07-29T05:41:36;101728.81;;;16.77;57.56
72285;BME280;60220;53.552;10.092;2022-07-29T05:44:05;101725.38;;;16.72;58.29
72285;BME280;60220;53.552;10.092;2022-07-29T05:46:30;101728.66;;;16.84;58.50
72285;BME280;60220;53.552;10.092;2022-07-29T05:48:56;101732.06;;;16.89;59.22
72285;BME280;60220;53.552;10.092;2022-07-29T05:51:24;101736.44;;;16.91;57.37
72285;BME280;60220;53.552;10.092;2022-07-29T05:53:51;101730.84;;;17.03;57.51
72285;BME280;60220;53.552;10.092;2022-07-29T05:56:17;101738.41;;;17.18;57.35
72285;BME280;60220;53.552;10.092;2022-07-29T05:58:43;101727.72;;;16.85;58.42
72285;BME280;60220;53.552;10.092;2022-07-29T06:01:08;101728.91;;;17.10;58.36
72285;BME280;60220;53.552;10.092;2022-07-29T06:03:36;101725.47;;;17.76;56.03
72285;BME280;60220;53.552;10.092;2022-07-29T06:06:03;101726.88;;;17.89;56.10
72285;BME280;60220;53.552;10.092;2022-07-29T06:08:28;101716.09;;;17.93;55.55
72285;BME280;60220;53.552;10.092;2022-07-29T06:10:56;101723.63;;;18.10;54.88
72285;BME280;60220;53.552;10.092;2022-07-29T06:13:21;101723.09;;;17.97;55.57
72285;BME280;60220;53.552;10.092;2022-07-29T06:15:49;101719.78;;;18.20;55.19
72285;BME280;60220;53.552;10.092;2022-07-29T06:18:15;101721.84;;;18.40;54.42
72285;BME280;60220;53.552;10.092;2022-07-29T06:20:40;101716.63;;;18.08;55.20
72285;BME280;60220;53.552;10.092;2022-07-29T06:23:06;101721.53;;;17.56;55.87
72285;BME280;60220;53.552;10.092;2022-07-29T06:25:31;101728.53;;;17.60;56.53
72285;BME280;60220;53.552;10.092;2022-07-29T06:28:03;101720.16;;;18.08;56.02
72285;BME280;60220;53.552;10.092;2022-07-29T06:30:32;101720.66;;;17.90;55.94
72285;BME280;60220;53.552;10.092;2022-07-29T06:33:00;101714.28;;;18.26;55.51
72285;BME280;60220;53.552;10.092;2022-07-29T06:35:27;101719.72;;;18.53;54.86
72285;BME280;60220;53.552;10.092;2022-07-29T06:37:52;101723.28;;;18.81;54.18
72285;BME280;60220;53.552;10.092;2022-07-29T06:40:20;101710.28;;;18.42;54.67
72285;BME280;60220;53.552;10.092;2022-07-29T06:43:04;101720.44;;;19.13;53.47
72285;BME280;60220;53.552;10.092;2022-07-29T06:45:35;101726.00;;;18.48;54.58
72285;BME280;60220;53.552;10.092;2022-07-29T06:48:09;101714.56;;;18.46;54.75
72285;BME280;60220;53.552;10.092;2022-07-29T06:50:35;101709.47;;;18.98;54.23
72285;BME280;60220;53.552;10.092;2022-07-29T06:53:04;101713.75;;;18.74;54.73
72285;BME280;60220;53.552;10.092;2022-07-29T06:55:30;101717.56;;;18.93;54.46
72285;BME280;60220;53.552;10.092;2022-07-29T06:57:58;101713.50;;;19.09;54.88
72285;BME280;60220;53.552;10.092;2022-07-29T07:00:24;101714.13;;;19.17;53.57
72285;BME280;60220;53.552;10.092;2022-07-29T07:02:50;101711.41;;;19.19;52.86
72285;BME280;60220;53.552;10.092;2022-07-29T07:05:17;101707.44;;;18.78;54.84
72285;BME280;60220;53.552;10.092;2022-07-29T07:07:45;101709.41;;;19.25;53.59
72285;BME280;60220;53.552;10.092;2022-07-29T07:10:12;101711.19;;;18.99;53.46
72285;BME280;60220;53.552;10.092;2022-07-29T07:12:43;101709.25;;;18.76;54.68
72285;BME280;60220;53.552;10.092;2022-07-29T07:15:09;101702.97;;;18.78;54.48
72285;BME280;60220;53.552;10.092;2022-07-29T07:17:34;101706.50;;;19.07;54.37
72285;BME280;60220;53.552;10.092;2022-07-29T07:20:04;101712.47;;;19.13;55.13
72285;BME280;60220;53.552;10.092;2022-07-29T07:22:32;101708.38;;;19.03;54.76
72285;BME280;60220;53.552;10.092;2022-07-29T07:24:58;101700.78;;;19.45;52.96
72285;BME280;60220;53.552;10.092;2022-07-29T07:27:25;101702.34;;;19.24;53.12
72285;BME280;60220;53.552;10.092;2022-07-29T07:29:53;101696.88;;;19.80;52.41
72285;BME280;60220;53.552;10.092;2022-07-29T07:32:18;101692.00;;;20.16;52.10
72285;BME280;60220;53.552;10.092;2022-07-29T07:34:44;101691.56;;;20.03;52.67
72285;BME280;60220;53.552;10.092;2022-07-29T07:37:10;101696.88;;;20.03;51.90
72285;BME280;60220;53.552;10.092;2022-07-29T07:39:36;101693.56;;;20.22;51.33
72285;BME280;60220;53.552;10.092;2022-07-29T07:42:04;101685.66;;;19.95;53.42
72285;BME280;60220;53.552;10.092;2022-07-29T07:44:29;101690.53;;;20.54;51.71
72285;BME280;60220;53.552;10.092;2022-07-29T07:46:55;101691.19;;;19.89;52.73
72285;BME280;60220;53.552;10.092;2022-07-29T07:49:20;101685.19;;;20.32;51.62
72285;BME280;60220;53.552;10.092;2022-07-29T07:51:46;101691.38;;;20.56;51.56
72285;BME280;60220;53.552;10.092;2022-07-29T07:54:11;101689.16;;;20.67;51.20
72285;BME280;60220;53.552;10.092;2022-07-29T07:56:37;101696.00;;;20.51;52.90
72285;BME280;60220;53.552;10.092;2022-07-29T07:59:07;101684.72;;;20.19;50.74
72285;BME280;60220;53.552;10.092;2022-07-29T08:01:35;101691.03;;;20.42;50.23
72285;BME280;60220;53.552;10.092;2022-07-29T08:04:00;101683.00;;;20.87;49.72
72285;BME280;60220;53.552;10.092;2022-07-29T08:06:28;101690.06;;;20.66;50.26
72285;BME280;60220;53.552;10.092;2022-07-29T08:08:54;101690.56;;;20.76;52.19
72285;BME280;60220;53.552;10.092;2022-07-29T08:11:19;101694.34;;;21.14;48.54
72285;BME280;60220;53.552;10.092;2022-07-29T08:13:47;101690.00;;;21.53;47.89
72285;BME280;60220;53.552;10.092;2022-07-29T08:16:13;101685.56;;;21.72;47.12
72285;BME280;60220;53.552;10.092;2022-07-29T08:18:41;101680.19;;;22.69;46.14
72285;BME280;60220;53.552;10.092;2022-07-29T08:21:06;101680.94;;;22.72;44.69
72285;BME280;60220;53.552;10.092;2022-07-29T08:23:36;101678.19;;;23.27;44.43
72285;BME280;60220;53.552;10.092;2022-07-29T08:26:10;101677.75;;;22.83;44.21
72285;BME280;60220;53.552;10.092;2022-07-29T08:28:45;101673.16;;;23.38;43.98
72285;BME280;60220;53.552;10.092;2022-07-29T08:31:12;101665.91;;;24.25;41.15
72285;BME280;60220;53.552;10.092;2022-07-29T08:33:40;101673.53;;;23.49;43.22
72285;BME280;60220;53.552;10.092;2022-07-29T08:36:08;101671.88;;;22.94;44.20
72285;BME280;60220;53.552;10.092;2022-07-29T08:38:35;101678.19;;;23.27;44.28
72285;BME280;60220;53.552;10.092;2022-07-29T08:41:04;101675.44;;;24.13;42.94
72285;BME280;60220;53.552;10.092;2022-07-29T08:43:34;101668.94;;;24.34;42.36
72285;BME280;60220;53.552;10.092;2022-07-29T08:46:02;101677.50;;;24.72;42.79
72285;BME280;60220;53.552;10.092;2022-07-29T08:48:30;101680.19;;;24.57;42.18
72285;BME280;60220;53.552;10.092;2022-07-29T08:50:56;101670.72;;;24.81;41.59
72285;BME280;60220;53.552;10.092;2022-07-29T08:53:26;101673.16;;;25.31;40.05
72285;BME280;60220;53.552;10.092;2022-07-29T08:55:52;101670.34;;;24.89;40.42
72285;BME280;60220;53.552;10.092;2022-07-29T08:58:21;101677.84;;;24.98;40.50
72285;BME280;60220;53.552;10.092;2022-07-29T09:00:52;101675.00;;;24.54;40.83
72285;BME280;60220;53.552;10.092;2022-07-29T09:03:23;101668.81;;;24.83;41.64
72285;BME280;60220;53.552;10.092;2022-07-29T09:05:51;101672.53;;;23.68;42.44
72285;BME280;60220;53.552;10.092;2022-07-29T09:08:19;101658.28;;;24.00;43.21
72285;BME280;60220;53.552;10.092;2022-07-29T09:10:47;101661.16;;;24.46;41.01
72285;BME280;60220;53.552;10.092;2022-07-29T09:13:15;101665.94;;;25.17;40.42
72285;BME280;60220;53.552;10.092;2022-07-29T09:15:41;101668.97;;;25.41;39.80
72285;BME280;60220;53.552;10.092;2022-07-29T09:18:06;101664.38;;;25.73;39.04
72285;BME280;60220;53.552;10.092;2022-07-29T09:20:32;101665.03;;;25.33;39.49
72285;BME280;60220;53.552;10.092;2022-07-29T09:23:16;101660.88;;;26.56;38.15
72285;BME280;60220;53.552;10.092;2022-07-29T09:25:41;101657.00;;;26.60;39.38
72285;BME280;60220;53.552;10.092;2022-07-29T09:30:33;101658.31;;;25.25;37.54
72285;BME280;60220;53.552;10.092;2022-07-29T09:33:00;101653.53;;;25.45;38.30
72285;BME280;60220;53.552;10.092;2022-07-29T09:35:29;101652.91;;;24.80;38.10
72285;BME280;60220;53.552;10.092;2022-07-29T09:37:57;101653.69;;;24.66;39.15
72285;BME280;60220;53.552;10.092;2022-07-29T09:40:37;101648.44;;;24.16;40.44
72285;BME280;60220;53.552;10.092;2022-07-29T09:43:12;101653.69;;;24.19;39.78
72285;BME280;60220;53.552;10.092;2022-07-29T09:45:38;101659.50;;;23.94;41.71
72285;BME280;60220;53.552;10.092;2022-07-29T09:48:18;101666.25;;;23.51;44.69
72285;BME280;60220;53.552;10.092;2022-07-29T09:50:45;101654.19;;;23.93;40.59
72285;BME280;60220;53.552;10.092;2022-07-29T09:53:29;101655.22;;;23.57;41.72
72285;BME280;60220;53.552;10.092;2022-07-29T09:56:02;101655.25;;;24.23;41.92
72285;BME280;60220;53.552;10.092;2022-07-29T09:58:28;101655.88;;;24.11;41.89
72285;BME280;60220;53.552;10.092;2022-07-29T10:00:54;101665.66;;;24.45;40.71
72285;BME280;60220;53.552;10.092;2022-07-29T10:03:20;101669.53;;;23.91;41.12
72285;BME280;60220;53.552;10.092;2022-07-29T10:06:10;101658.97;;;24.36;40.24
72285;BME280;60220;53.552;10.092;2022-07-29T10:08:37;101646.06;;;24.27;40.75
72285;BME280;60220;53.552;10.092;2022-07-29T10:11:18;101656.88;;;23.93;43.97
72285;BME280;60220;53.552;10.092;2022-07-29T10:13:45;101654.31;;;24.07;41.62
72285;BME280;60220;53.552;10.092;2022-07-29T10:16:19;101653.34;;;24.41;40.91
72285;BME280;60220;53.552;10.092;2022-07-29T10:18:47;101653.25;;;23.94;41.69
72285;BME280;60220;53.552;10.092;2022-07-29T10:21:12;101642.25;;;24.31;40.58
72285;BME280;60220;53.552;10.092;2022-07-29T10:23:38;101641.63;;;24.11;40.77
72285;BME280;60220;53.552;10.092;2022-07-29T10:26:06;101646.16;;;23.93;40.43
72285;BME280;60220;53.552;10.092;2022-07-29T10:28:37;101638.44;;;24.20;40.32
72285;BME280;60220;53.552;10.092;2022-07-29T10:31:06;101634.47;;;23.94;41.68
72285;BME280;60220;53.552;10.092;2022-07-29T10:33:59;101626.94;;;23.85;41.80
72285;BME280;60220;53.552;10.092;2022-07-29T10:39:56;101636.88;;;24.16;40.90
72285;BME280;60220;53.552;10.092;2022-07-29T10:42:29;101628.91;;;25.22;38.85
72285;BME280;60220;53.552;10.092;2022-07-29T10:44:55;101630.44;;;24.81;38.89
72285;BME280;60220;53.552;10.092;2022-07-29T10:47:25;101633.84;;;24.37;40.30
72285;BME280;60220;53.552;10.092;2022-07-29T10:50:09;101626.28;;;24.13;40.68
72285;BME280;60220;53.552;10.092;2022-07-29T10:52:57;101630.56;;;24.95;39.76
72285;BME280;60220;53.552;10.092;2022-07-29T10:55:50;101619.22;;;24.90;40.22
72285;BME280;60220;53.552;10.092;2022-07-29T10:58:19;101622.84;;;24.89;38.88
72285;BME280;60220;53.552;10.092;2022-07-29T11:00:47;101626.50;;;24.57;39.04
72285;BME280;60220;53.552;10.092;2022-07-29T11:03:45;101615.47;;;24.61;40.09
72285;BME280;60220;53.552;10.092;2022-07-29T11:06:19;101619.91;;;24.94;38.47
72285;BME280;60220;53.552;10.092;2022-07-29T11:08:44;101618.13;;;25.08;38.79
72285;BME280;60220;53.552;10.092;2022-07-29T11:16:11;101612.06;;;25.49;39.26
72285;BME280;60220;53.552;10.092;2022-07-29T11:21:43;101609.84;;;24.66;37.95
72285;BME280;60220;53.552;10.092;2022-07-29T11:26:44;101608.06;;;25.56;36.54
72285;BME280;60220;53.552;10.092;2022-07-29T11:29:19;101609.97;;;25.54;35.85
72285;BME280;60220;53.552;10.092;2022-07-29T11:31:47;101607.38;;;25.81;36.18
72285;BME280;60220;53.552;10.092;2022-07-29T11:34:28;101599.66;;;25.32;36.79
72285;BME280;60220;53.552;10.092;2022-07-29T11:39:40;101600.34;;;25.50;37.38
72285;BME280;60220;53.552;10.092;2022-07-29T11:44:57;101589.13;;;25.86;35.82
72285;BME280;60220;53.552;10.092;2022-07-29T11:47:26;101588.91;;;26.17;35.11
72285;BME280;60220;53.552;10.092;2022-07-29T11:49:59;101588.03;;;26.17;35.97
72285;BME280;60220;53.552;10.092;2022-07-29T11:52:37;101581.81;;;26.57;34.76
72285;BME280;60220;53.552;10.092;2022-07-29T11:55:11;101583.81;;;26.80;34.85
72285;BME280;60220;53.552;10.092;2022-07-29T11:57:47;101576.78;;;26.38;35.50
72285;BME280;60220;53.552;10.092;2022-07-29T12:02:51;101576.66;;;25.99;35.63
72285;BME280;60220;53.552;10.092;2022-07-29T12:05:18;101576.53;;;26.14;34.75
72285;BME280;60220;53.552;10.092;2022-07-29T12:07:43;101573.81;;;26.55;34.38
72285;BME280;60220;53.552;10.092;2022-07-29T12:10:09;101578.25;;;26.83;33.70
72285;BME280;60220;53.552;10.092;2022-07-29T12:12:37;101564.47;;;26.88;35.80
72285;BME280;60220;53.552;10.092;2022-07-29T12:15:16;101571.72;;;26.20;34.84
72285;BME280;60220;53.552;10.092;2022-07-29T12:17:50;101555.66;;;26.32;34.35
72285;BME280;60220;53.552;10.092;2022-07-29T12:20:24;101562.50;;;25.95;34.47
72285;BME280;60220;53.552;10.092;2022-07-29T12:22:50;101564.00;;;25.58;35.38
72285;BME280;60220;53.552;10.092;2022-07-29T12:25:23;101555.00;;;26.14;34.71
72285;BME280;60220;53.552;10.092;2022-07-29T12:28:02;101561.53;;;26.25;34.60
72285;BME280;60220;53.552;10.092;2022-07-29T12:30:56;101560.25;;;26.16;33.79
72285;BME280;60220;53.552;10.092;2022-07-29T12:33:27;101556.94;;;25.98;34.54
72285;BME280;60220;53.552;10.092;2022-07-29T12:36:00;101555.72;;;25.76;35.43
72285;BME280;60220;53.552;10.092;2022-07-29T12:38:26;101554.69;;;26.19;35.65
72285;BME280;60220;53.552;10.092;2022-07-29T12:40:53;101552.69;;;26.08;33.37
72285;BME280;60220;53.552;10.092;2022-07-29T12:43:23;101548.56;;;26.03;33.49
72285;BME280;60220;53.552;10.092;2022-07-29T12:45:53;101556.28;;;26.36;33.63
72285;BME280;60220;53.552;10.092;2022-07-29T12:48:38;101548.78;;;26.41;33.34
72285;BME280;60220;53.552;10.092;2022-07-29T12:51:07;101548.91;;;26.39;34.07
72285;BME280;60220;53.552;10.092;2022-07-29T12:53:39;101551.84;;;26.49;34.44
72285;BME280;60220;53.552;10.092;2022-07-29T12:56:05;101557.34;;;26.60;32.94
72285;BME280;60220;53.552;10.092;2022-07-29T12:58:36;101547.97;;;26.53;33.24
72285;BME280;60220;53.552;10.092;2022-07-29T13:01:16;101553.69;;;25.93;33.14
72285;BME280;60220;53.552;10.092;2022-07-29T13:03:54;101546.13;;;26.27;31.25
72285;BME280;60220;53.552;10.092;2022-07-29T13:06:32;101545.22;;;26.67;31.98
72285;BME280;60220;53.552;10.092;2022-07-29T13:08:59;101536.25;;;26.93;30.76
72285;BME280;60220;53.552;10.092;2022-07-29T13:11:36;101531.09;;;27.16;30.14
72285;BME280;60220;53.552;10.092;2022-07-29T13:14:03;101528.72;;;27.36;30.67
72285;BME280;60220;53.552;10.092;2022-07-29T13:16:31;101532.38;;;26.71;33.04
72285;BME280;60220;53.552;10.092;2022-07-29T13:19:05;101530.97;;;26.65;30.92
72285;BME280;60220;53.552;10.092;2022-07-29T13:21:31;101533.13;;;26.60;31.61